FW9549 Weather Reports


Display with metric or nautical units.
time (UTC)temp
F
wind
direction
speed
MPH
gust
MPH
rain 1hr
in
rain 24hr
in
rain mn
in
humidity
%
barometer
mb
20210615002343 79 247 0.0 0.0 0.00 0.00 0.00 71 1009.7
20210615001841 79 250 0.0 0.0 0.00 0.00 0.00 71 1009.7
20210615001338 80 250 0.0 0.0 0.00 0.00 0.00 70 1009.7
20210615000832 80 251 0.0 0.0 0.00 0.00 0.00 70 1009.7
20210615000317 80 251 0.0 0.0 0.00 0.00 0.00 70 1009.5
20210614235809 80 251 0.0 0.0 0.00 0.00 0.00 68 1009.7
20210614235308 81 251 0.0 0.0 0.00 0.00 0.00 65 1009.5
20210614234805 81 251 0.0 0.0 0.00 0.00 0.00 64 1009.6
20210614234257 81 251 0.0 0.0 0.00 0.00 0.00 64 1009.3
20210614233755 81 251 0.0 0.0 0.00 0.00 0.00 64 1009.3
20210614233254 81 251 0.0 0.0 0.00 0.00 0.00 63 1009.3
20210614232551 82 252 0.0 0.0 0.00 0.00 0.00 62 1009.6
20210614232046 82 252 0.0 0.0 0.00 0.00 0.00 66 1009.4
20210614231544 82 252 0.0 0.0 0.00 0.00 0.00 64 1009.4
20210614231036 82 252 0.0 0.0 0.00 0.00 0.00 60 1009.5
20210614230534 82 252 0.0 0.0 0.00 0.00 0.00 59 1009.5
20210614225957 82 252 0.0 0.0 0.00 0.00 0.00 61 1009.6
20210614225450 82 252 0.0 0.0 0.00 0.00 0.00 60 1009.6
20210614224949 82 252 0.0 0.0 0.00 0.00 0.00 59 1009.5
20210614224440 81 252 0.0 0.0 0.00 0.00 0.00 63 1009.8
20210614223940 80 252 0.0 0.0 0.00 0.00 0.00 68 1009.9
20210614223417 80 252 0.0 0.0 0.00 0.00 0.00 68 1009.5
20210614222911 79 252 0.0 0.0 0.00 0.00 0.00 69 1009.5
20210614222409 78 252 0.0 0.0 0.00 0.00 0.00 70 1009.5
20210614221905 78 251 0.0 0.0 0.00 0.00 0.00 71 1009.2
20210614221358 78 251 0.0 0.0 0.00 0.00 0.00 70 1009.5
20210614220855 78 251 0.0 0.0 0.00 0.00 0.00 68 1009.5
20210614220353 79 251 0.0 0.0 0.00 0.00 0.00 70 1009.7
20210614215847 79 251 0.0 0.0 0.00 0.00 0.00 66 1009.6
20210614215342 80 119 0.0 0.0 0.00 0.00 0.00 64 1009.8
20210614214836 81 115 0.0 0.0 0.00 0.00 0.00 61 1009.7
20210614214335 81 260 0.0 0.0 0.00 0.00 0.00 61 1009.4
20210614213802 82 252 0.0 0.0 0.00 0.00 0.00 59 1009.5
20210614213256 82 261 0.0 0.0 0.00 0.00 0.00 58 1009.4
20210614212755 83 77 0.0 0.0 0.00 0.00 0.00 56 1009.7
20210614212250 83 203 0.0 0.0 0.00 0.00 0.00 58 1009.5
20210614211749 83 230 0.0 1.0 0.00 0.00 0.00 57 1009.3
20210614211246 83 245 0.0 0.0 0.00 0.00 0.00 57 1009.6
20210614210741 83 31 0.0 0.0 0.00 0.00 0.00 57 1009.4
20210614210235 84 91 1.0 1.0 0.00 0.00 0.00 55 1009.5
20210614205732 85 293 1.0 1.0 0.00 0.00 0.00 54 1009.5
20210614205225 86 84 0.0 1.0 0.00 0.00 0.00 53 1009.5
20210614204720 85 84 1.0 2.0 0.00 0.00 0.00 54 1009.6
20210614204219 86 86 1.0 1.0 0.00 0.00 0.00 54 1009.6
20210614203715 85 96 0.0 0.0 0.00 0.00 0.00 55 1009.9
20210614203209 85 305 0.0 0.0 0.00 0.00 0.00 55 1009.8
20210614202704 87 104 0.0 1.0 0.00 0.00 0.00 53 1010.2
20210614202157 86 79 0.0 1.0 0.00 0.00 0.00 54 1010.0
20210614201656 87 226 0.0 0.0 0.00 0.00 0.00 54 1010.1
20210614201152 88 232 2.0 2.0 0.00 0.00 0.00 54 1010.4
20210614200647 88 243 1.0 1.0 0.00 0.00 0.00 51 1010.3
20210614200139 88 234 1.0 1.0 0.00 0.00 0.00 51 1010.5
20210614195637 88 227 1.0 1.0 0.00 0.00 0.00 51 1010.4
20210614195134 88 249 0.0 0.0 0.00 0.00 0.00 52 1010.3
20210614194609 87 234 0.0 1.0 0.00 0.00 0.00 54 1010.5
20210614194057 87 321 0.0 0.0 0.00 0.00 0.00 53 1010.6
20210614193554 87 221 1.0 1.0 0.00 0.00 0.00 53 1010.5
20210614193052 86 246 0.0 0.0 0.00 0.00 0.00 58 1010.4
20210614192546 87 228 1.0 1.0 0.00 0.00 0.00 55 1010.2
20210614192043 87 237 1.0 1.0 0.00 0.00 0.00 55 1010.3
20210614191540 87 219 0.0 0.0 0.00 0.00 0.00 52 1010.2
20210614191035 87 244 1.0 1.0 0.00 0.00 0.00 52 1010.2
20210614190533 87 221 1.0 1.0 0.00 0.00 0.00 55 1010.5
20210614190029 86 220 0.0 1.0 0.00 0.00 0.00 57 1010.6
20210614185526 87 250 0.0 0.0 0.00 0.00 0.00 53 1010.6
20210614185024 87 230 0.0 0.0 0.00 0.00 0.00 59 1010.6
20210614184518 87 236 0.0 0.0 0.00 0.00 0.00 54 1010.6
20210614184015 86 217 1.0 1.0 0.00 0.00 0.00 55 1010.5
20210614183503 87 234 2.0 2.0 0.00 0.00 0.00 57 1010.8
20210614183000 88 256 0.0 0.0 0.00 0.00 0.00 52 1010.9
20210614182459 87 239 0.0 0.0 0.00 0.00 0.00 54 1011.1
20210614181957 88 83 1.0 2.0 0.00 0.00 0.00 50 1011.0
20210614181451 87 206 0.0 0.0 0.00 0.00 0.00 53 1011.2
20210614180945 86 231 2.0 2.0 0.00 0.00 0.00 54 1011.5
20210614180443 86 216 3.0 3.0 0.00 0.00 0.00 54 1011.2
20210614175942 86 236 0.0 0.0 0.00 0.00 0.00 58 1011.3
20210614175438 86 212 0.0 1.0 0.00 0.00 0.00 56 1011.4
20210614174934 86 234 0.0 0.0 0.00 0.00 0.00 57 1011.4
20210614174432 86 243 0.0 0.0 0.00 0.00 0.00 57 1011.4
20210614173928 86 247 1.0 2.0 0.00 0.00 0.00 59 1011.7
20210614173426 86 237 0.0 0.0 0.00 0.00 0.00 59 1011.7
20210614172917 85 239 0.0 1.0 0.00 0.00 0.00 58 1011.7
20210614172415 85 266 0.0 0.0 0.00 0.00 0.00 56 1011.7
20210614171906 85 218 0.0 0.0 0.00 0.00 0.00 57 1011.7
20210614171405 85 228 1.0 1.0 0.00 0.00 0.00 59 1011.7
20210614170904 86 168 0.0 0.0 0.00 0.00 0.00 59 1012.1
20210614170359 86 100 1.0 1.0 0.00 0.00 0.00 56 1011.8
20210614165856 84 244 0.0 1.0 0.00 0.00 0.00 60 1012.0
20210614165346 85 244 0.0 0.0 0.00 0.00 0.00 60 1011.8
20210614164843 85 252 0.0 0.0 0.00 0.00 0.00 61 1011.9
20210614164337 84 233 0.0 1.0 0.00 0.00 0.00 63 1011.9
20210614163833 84 219 0.0 0.0 0.00 0.00 0.00 62 1011.9
20210614163330 84 219 0.0 0.0 0.00 0.00 0.00 61 1011.9
20210614162827 83 218 2.0 2.0 0.00 0.00 0.00 63 1012.1
20210614162323 83 215 0.0 0.0 0.00 0.00 0.00 62 1012.3
20210614161819 83 33 1.0 2.0 0.00 0.00 0.00 63 1012.2
20210614161317 84 227 0.0 1.0 0.00 0.00 0.00 63 1012.2
20210614160811 83 341 0.0 0.0 0.00 0.00 0.00 62 1012.5
20210614160307 82 226 2.0 2.0 0.00 0.00 0.00 65 1012.3
20210614155759 82 252 0.0 0.0 0.00 0.00 0.00 68 1012.2
20210614155256 82 232 1.0 1.0 0.00 0.00 0.00 69 1012.5
20210614154751 82 238 0.0 0.0 0.00 0.00 0.00 66 1012.6
20210614154250 81 221 0.0 0.0 0.00 0.00 0.00 67 1012.4
20210614153747 82 33 0.0 0.0 0.00 0.00 0.00 64 1012.6
20210614153245 81 208 0.0 1.0 0.00 0.00 0.00 65 1012.6
20210614152738 81 231 0.0 0.0 0.00 0.00 0.00 67 1012.4
20210614152230 80 274 0.0 0.0 0.00 0.00 0.00 68 1012.5
20210614151725 81 176 0.0 0.0 0.00 0.00 0.00 65 1012.5
20210614151223 80 230 0.0 0.0 0.00 0.00 0.00 70 1012.5
20210614150715 80 248 0.0 0.0 0.00 0.00 0.00 69 1012.6
20210614150214 79 255 0.0 0.0 0.00 0.00 0.00 69 1012.4
20210614145712 78 232 0.0 0.0 0.00 0.00 0.00 71 1012.7
20210614145209 78 236 0.0 0.0 0.00 0.00 0.00 70 1012.5
20210614144700 77 213 0.0 0.0 0.00 0.00 0.00 71 1012.3
20210614144200 78 217 1.0 2.0 0.00 0.00 0.00 73 1012.6
20210614143659 77 25 0.0 0.0 0.00 0.00 0.00 72 1012.5
20210614143159 78 221 0.0 0.0 0.00 0.00 0.00 72 1012.4
20210614142656 77 221 0.0 1.0 0.00 0.00 0.00 74 1012.6
20210614142150 76 229 0.0 1.0 0.00 0.00 0.00 77 1012.6
20210614141634 75 237 0.0 0.0 0.00 0.00 0.00 78 1012.5
20210614141132 75 238 0.0 0.0 0.00 0.00 0.00 80 1012.6
20210614140629 76 239 0.0 0.0 0.00 0.00 0.00 79 1012.5
20210614140124 76 239 0.0 0.0 0.00 0.00 0.00 76 1012.6
20210614135619 76 240 0.0 1.0 0.00 0.00 0.00 78 1012.6
20210614135116 76 265 0.0 0.0 0.00 0.00 0.00 76 1012.6
20210614134616 76 225 0.0 0.0 0.00 0.00 0.00 78 1012.6
20210614134110 76 232 1.0 1.0 0.00 0.00 0.00 76 1012.8
20210614133609 76 238 0.0 1.0 0.00 0.00 0.00 77 1012.7
20210614133106 76 138 0.0 0.0 0.00 0.00 0.00 73 1012.9
20210614132605 76 242 0.0 0.0 0.00 0.00 0.00 73 1012.7
20210614132102 75 296 0.0 0.0 0.00 0.00 0.00 76 1012.8
20210614131550 76 232 0.0 0.0 0.00 0.00 0.00 75 1012.7
20210614131047 75 227 0.0 0.0 0.00 0.00 0.00 75 1012.7
20210614130543 75 227 0.0 0.0 0.00 0.00 0.00 77 1013.0
20210614130043 75 243 0.0 0.0 0.00 0.00 0.00 78 1012.8
20210614125516 74 245 0.0 0.0 0.00 0.00 0.00 80 1012.6
20210614124933 74 245 0.0 0.0 0.00 0.00 0.00 81 1012.9
20210614124430 73 213 0.0 0.0 0.00 0.00 0.00 83 1012.6
20210614123856 73 238 0.0 0.0 0.00 0.00 0.00 84 1012.9
20210614123335 72 201 0.0 0.0 0.00 0.00 0.00 84 1012.7
20210614122828 71 236 0.0 0.0 0.00 0.00 0.00 87 1012.8
20210614122327 71 240 0.0 0.0 0.00 0.00 0.00 88 1012.5
20210614121828 70 240 0.0 0.0 0.00 0.00 0.00 89 1012.5
20210614121323 70 240 0.0 0.0 0.00 0.00 0.00 91 1012.6
20210614120814 71 240 0.0 0.0 0.00 0.00 0.00 90 1012.5
20210614120309 71 240 0.0 0.0 0.00 0.00 0.00 89 1012.6
20210614115803 71 240 0.0 0.0 0.00 0.00 0.00 89 1012.3
20210614115255 70 240 0.0 0.0 0.00 0.00 0.00 90 1012.3
20210614114750 70 240 0.0 0.0 0.00 0.00 0.00 89 1012.4
20210614114247 70 240 0.0 0.0 0.00 0.00 0.00 90 1012.5
20210614113747 69 240 0.0 0.0 0.00 0.00 0.00 94 1012.4
20210614113243 67 240 0.0 0.0 0.00 0.00 0.00 97 1012.4
20210614112740 66 240 0.0 0.0 0.00 0.00 0.00 97 1012.4
20210614112233 66 240 0.0 0.0 0.00 0.00 0.00 97 1012.2
20210614111729 66 240 0.0 0.0 0.00 0.00 0.00 98 1012.1
20210614111225 66 240 0.0 1.0 0.00 0.00 0.00 98 1012.2
20210614110706 65 240 0.0 0.0 0.00 0.00 0.00 98 1012.2
20210614110201 65 240 0.0 0.0 0.00 0.00 0.00 99 1012.2
20210614105658 65 240 0.0 0.0 0.00 0.00 0.00 99 1011.9
20210614105156 65 240 0.0 0.0 0.00 0.00 0.00 99 1011.9
20210614104648 64 240 0.0 0.0 0.00 0.00 0.00 99 1012.0
20210614104148 64 240 0.0 0.0 0.00 0.00 0.00 99 1012.0
20210614103646 64 240 0.0 0.0 0.00 0.00 0.00 99 1012.2
20210614103142 64 240 0.0 0.0 0.00 0.00 0.00 99 1012.0
20210614102635 64 240 0.0 0.0 0.00 0.00 0.00 99 1012.0
20210614102132 64 240 0.0 0.0 0.00 0.00 0.00 99 1012.1
20210614101624 64 240 0.0 0.0 0.00 0.00 0.00 99 1011.9
20210614101119 64 240 0.0 0.0 0.00 0.00 0.00 99 1011.8
20210614100619 64 240 0.0 0.0 0.00 0.00 0.00 99 1011.9
20210614100113 64 240 0.0 0.0 0.00 0.00 0.00 99 1012.0
20210614095610 64 240 0.0 0.0 0.00 0.00 0.00 99 1011.8
20210614095110 64 240 0.0 0.0 0.00 0.00 0.00 99 1011.9
20210614094602 64 240 0.0 0.0 0.00 0.00 0.00 99 1011.7
20210614094101 65 240 0.0 0.0 0.00 0.00 0.00 99 1011.7
20210614093559 64 240 0.0 0.0 0.00 0.00 0.00 99 1011.8
20210614093055 65 240 0.0 0.0 0.00 0.00 0.00 99 1011.5
20210614092554 65 240 0.0 0.0 0.00 0.00 0.00 99 1011.5
20210614092046 65 240 0.0 0.0 0.00 0.00 0.00 99 1011.3
20210614091540 65 240 0.0 0.0 0.00 0.00 0.00 99 1011.8
20210614091036 65 240 0.0 0.0 0.00 0.00 0.00 99 1011.9
20210614090534 65 240 0.0 0.0 0.00 0.00 0.00 99 1011.4
20210614090033 65 240 0.0 0.0 0.00 0.00 0.00 99 1011.7
20210614085526 65 240 0.0 0.0 0.00 0.00 0.00 99 1011.3
20210614085012 65 240 0.0 1.0 0.00 0.00 0.00 99 1011.3
20210614084504 65 240 0.0 0.0 0.00 0.00 0.00 99 1011.3
20210614083935 65 240 0.0 0.0 0.00 0.00 0.00 98 1011.5
20210614083411 65 240 0.0 0.0 0.00 0.00 0.00 99 1011.4
20210614082908 65 240 0.0 0.0 0.00 0.00 0.00 99 1011.2
20210614082401 65 240 0.0 0.0 0.00 0.00 0.00 99 1011.1
20210614081858 65 240 0.0 0.0 0.00 0.00 0.00 99 1011.0
20210614081357 65 240 0.0 0.0 0.00 0.00 0.00 98 1011.4
20210614080850 65 240 0.0 0.0 0.00 0.00 0.00 98 1010.9
20210614080344 65 240 0.0 0.0 0.00 0.00 0.00 98 1011.2
20210614075840 65 240 0.0 0.0 0.00 0.00 0.00 98 1011.2
20210614075338 65 240 0.0 0.0 0.00 0.00 0.00 98 1011.2
20210614074837 65 240 0.0 0.0 0.00 0.00 0.00 98 1011.1
20210614074332 66 240 0.0 0.0 0.00 0.00 0.00 98 1011.2
20210614073831 65 240 0.0 0.0 0.00 0.00 0.00 98 1011.3
20210614073322 66 240 0.0 0.0 0.00 0.00 0.00 98 1011.5
20210614072817 66 240 0.0 0.0 0.00 0.00 0.00 98 1011.5
20210614072309 66 240 0.0 0.0 0.00 0.00 0.00 98 1011.4
20210614071754 66 240 0.0 0.0 0.00 0.00 0.00 97 1011.3
20210614071249 66 240 0.0 0.0 0.00 0.00 0.00 97 1011.2
20210614070746 66 240 0.0 0.0 0.00 0.00 0.00 97 1011.4
20210614070246 66 240 0.0 0.0 0.00 0.00 0.00 97 1011.3
20210614065740 67 240 0.0 0.0 0.00 0.00 0.00 97 1011.3
20210614065235 67 244 0.0 0.0 0.00 0.00 0.00 97 1011.5
20210614064734 67 249 1.0 1.0 0.00 0.00 0.00 97 1011.5
20210614064226 67 250 0.0 0.0 0.00 0.00 0.00 97 1011.5
20210614063726 67 250 0.0 0.0 0.00 0.00 0.00 97 1011.7
20210614063217 67 250 0.0 0.0 0.00 0.00 0.00 97 1011.4
20210614062714 67 250 0.0 0.0 0.00 0.00 0.00 97 1011.7
20210614062213 68 245 0.0 0.0 0.00 0.00 0.00 98 1011.8
20210614061711 68 246 0.0 0.0 0.00 0.00 0.00 98 1011.5
20210614061207 68 243 0.0 0.0 0.00 0.00 0.00 98 1011.7
20210614060702 68 247 0.0 0.0 0.00 0.00 0.00 98 1011.5
20210614060149 68 247 0.0 0.0 0.00 0.00 0.00 97 1011.1
20210614055644 68 266 1.0 1.0 0.00 0.00 0.00 97 1010.8
20210614055135 68 299 0.0 0.0 0.00 0.00 0.00 97 1011.1
20210614054633 68 357 0.0 1.0 0.00 0.00 0.00 97 1011.0
20210614054129 68 228 0.0 0.0 0.00 0.00 0.00 97 1011.3
20210614053628 68 239 0.0 0.0 0.00 0.00 0.00 98 1011.9
20210614053125 68 242 0.0 0.0 0.00 0.00 0.00 98 1011.8
20210614052606 68 247 0.0 0.0 0.00 0.00 0.00 98 1011.3
20210614052104 68 245 0.0 0.0 0.00 0.00 0.00 97 1010.6
20210614051601 68 245 0.0 0.0 0.00 0.00 0.00 97 1010.6
20210614051058 68 244 1.0 1.0 0.00 0.00 0.00 97 1011.1
20210614050557 68 245 0.0 0.0 0.00 0.00 0.00 97 1011.1
20210614050051 69 244 0.0 1.0 0.00 0.00 0.00 96 1011.2
20210614045545 69 246 0.0 0.0 0.00 0.00 0.00 96 1011.7
20210614045040 69 246 0.0 0.0 0.00 0.00 0.00 96 1012.1
20210614044536 69 246 0.0 0.0 0.00 0.00 0.00 95 1012.2
20210614043954 69 240 0.0 0.0 0.00 0.00 0.00 94 1012.3
20210614043451 70 246 0.0 0.0 0.04 0.00 0.00 93 1012.2
20210614042923 70 243 0.0 0.0 0.04 0.00 0.00 92 1012.3
20210614042422 70 257 1.0 2.0 0.00 0.00 0.00 91 1012.8
20210614041920 71 248 0.0 0.0 0.00 0.00 0.00 90 1012.7
20210614041416 71 248 0.0 0.0 0.00 0.00 0.00 89 1012.9
20210614040912 72 257 0.0 0.0 0.00 0.00 0.00 87 1013.0
20210614040401 72 233 0.0 0.0 0.00 0.00 0.00 86 1013.0
20210614035856 72 231 0.0 0.0 0.00 0.00 0.00 83 1012.9
20210614035351 73 231 0.0 0.0 0.00 0.00 0.00 82 1012.8
20210614034851 73 230 0.0 0.0 0.00 0.00 0.00 82 1013.0
20210614034346 73 230 0.0 0.0 0.00 0.00 0.00 81 1013.3
20210614033843 73 229 0.0 0.0 0.00 0.00 0.00 81 1013.5
20210614033338 73 67 0.0 0.0 0.00 0.00 0.00 80 1014.2
20210614032835 73 70 0.0 1.0 0.00 0.00 0.00 81 1014.3
20210614032332 72 214 0.0 0.0 0.00 0.00 0.00 85 1014.6
20210614031832 71 241 0.0 1.0 0.00 0.00 0.00 89 1014.6
20210614031332 71 189 0.0 0.0 0.00 0.00 0.00 88 1014.3
20210614030829 70 249 0.0 0.0 0.00 0.00 0.00 91 1014.2
20210614030326 70 241 0.0 0.0 0.00 0.00 0.00 91 1013.8
20210614025820 71 240 0.0 0.0 0.00 0.00 0.00 91 1013.9
20210614025316 71 250 0.0 0.0 0.00 0.00 0.00 90 1013.7
20210614024810 71 228 0.0 0.0 0.00 0.00 0.00 90 1013.2
20210614024302 71 228 0.0 0.0 0.00 0.00 0.00 90 1013.2
20210614023755 71 228 0.0 0.0 0.00 0.00 0.00 90 1013.3
20210614023250 71 228 0.0 0.0 0.00 0.00 0.00 91 1013.3
20210614022746 71 228 0.0 0.0 0.00 0.00 0.00 90 1013.4
20210614022246 71 228 0.0 0.0 0.00 0.00 0.00 89 1013.3
20210614021741 71 228 0.0 0.0 0.00 0.00 0.00 90 1013.5
20210614021240 71 228 0.0 0.0 0.00 0.00 0.00 88 1013.3
20210614020734 71 228 0.0 0.0 0.00 0.00 0.00 88 1013.0
20210614020232 71 228 0.0 0.0 0.00 0.00 0.00 88 1012.9
20210614015725 72 228 0.0 0.0 0.00 0.00 0.00 87 1013.0
20210614015219 72 228 0.0 0.0 0.00 0.00 0.00 87 1012.8
20210614014657 72 228 0.0 0.0 0.00 0.00 0.00 86 1012.8
20210614014153 72 228 0.0 0.0 0.00 0.00 0.00 86 1012.5
20210614013651 72 228 0.0 0.0 0.00 0.00 0.00 86 1012.5
20210614013148 73 228 0.0 0.0 0.00 0.00 0.00 86 1012.6
20210614012641 73 228 0.0 0.0 0.00 0.00 0.00 84 1012.6
20210614012134 73 228 0.0 0.0 0.00 0.00 0.00 83 1012.5
20210614011630 73 228 0.0 0.0 0.00 0.00 0.00 84 1012.5
20210614011119 73 228 0.0 0.0 0.00 0.00 0.00 82 1012.3
20210614010617 74 228 0.0 0.0 0.00 0.00 0.00 85 1012.5
20210614010115 74 228 0.0 0.0 0.00 0.00 0.00 79 1012.3
20210614005615 75 228 0.0 0.0 0.00 0.00 0.00 79 1012.2
20210614005116 75 228 0.0 0.0 0.00 0.00 0.00 77 1012.2
20210614004611 75 228 0.0 0.0 0.00 0.00 0.00 77 1011.9
20210614004107 75 228 0.0 0.0 0.00 0.00 0.00 79 1012.0
20210614003557 75 228 0.0 0.0 0.00 0.00 0.00 77 1012.0
20210614003049 76 226 0.0 0.0 0.00 0.00 0.00 77 1011.7